sensor_id;sensor_type;location;lat;lon;timestamp;P1;durP1;ratioP1;P2;durP2;ratioP2
3052;SDS011;1536;51.098;6.414;2022-12-10T00:01:13;24.52;;;18.17;;
3052;SDS011;1536;51.098;6.414;2022-12-10T00:03:40;28.35;;;18.27;;
3052;SDS011;1536;51.098;6.414;2022-12-10T00:06:08;27.30;;;19.55;;
3052;SDS011;1536;51.098;6.414;2022-12-10T00:08:37;25.77;;;18.92;;
3052;SDS011;1536;51.098;6.414;2022-12-10T00:11:04;29.27;;;19.15;;
3052;SDS011;1536;51.098;6.414;2022-12-10T00:13:34;31.10;;;19.60;;
3052;SDS011;1536;51.098;6.414;2022-12-10T00:16:02;29.10;;;19.75;;
3052;SDS011;1536;51.098;6.414;2022-12-10T00:18:31;27.00;;;19.15;;
3052;SDS011;1536;51.098;6.414;2022-12-10T00:21:01;25.40;;;18.80;;
3052;SDS011;1536;51.098;6.414;2022-12-10T00:23:29;35.78;;;23.20;;
3052;SDS011;1536;51.098;6.414;2022-12-10T00:26:01;25.85;;;18.20;;
3052;SDS011;1536;51.098;6.414;2022-12-10T00:28:28;31.05;;;19.85;;
3052;SDS011;1536;51.098;6.414;2022-12-10T00:31:01;23.52;;;17.90;;
3052;SDS011;1536;51.098;6.414;2022-12-10T00:33:31;25.73;;;17.85;;
3052;SDS011;1536;51.098;6.414;2022-12-10T00:36:01;26.92;;;18.92;;
3052;SDS011;1536;51.098;6.414;2022-12-10T00:38:28;30.00;;;20.30;;
3052;SDS011;1536;51.098;6.414;2022-12-10T00:40:55;29.77;;;19.42;;
3052;SDS011;1536;51.098;6.414;2022-12-10T00:43:22;32.08;;;21.45;;
3052;SDS011;1536;51.098;6.414;2022-12-10T00:45:48;30.85;;;19.80;;
3052;SDS011;1536;51.098;6.414;2022-12-10T00:48:16;29.08;;;19.45;;
3052;SDS011;1536;51.098;6.414;2022-12-10T00:50:43;30.20;;;19.45;;
3052;SDS011;1536;51.098;6.414;2022-12-10T00:53:10;28.13;;;19.98;;
3052;SDS011;1536;51.098;6.414;2022-12-10T00:55:36;27.25;;;18.60;;
3052;SDS011;1536;51.098;6.414;2022-12-10T00:58:03;24.20;;;17.88;;
3052;SDS011;1536;51.098;6.414;2022-12-10T01:00:30;33.17;;;18.90;;
3052;SDS011;1536;51.098;6.414;2022-12-10T01:02:56;29.40;;;18.75;;
3052;SDS011;1536;51.098;6.414;2022-12-10T01:05:25;29.65;;;20.20;;
3052;SDS011;1536;51.098;6.414;2022-12-10T01:07:52;26.30;;;18.67;;
3052;SDS011;1536;51.098;6.414;2022-12-10T01:10:19;31.20;;;20.33;;
3052;SDS011;1536;51.098;6.414;2022-12-10T01:12:45;29.65;;;19.65;;
3052;SDS011;1536;51.098;6.414;2022-12-10T01:15:12;31.42;;;22.02;;
3052;SDS011;1536;51.098;6.414;2022-12-10T01:17:39;23.75;;;18.45;;
3052;SDS011;1536;51.098;6.414;2022-12-10T01:20:06;33.42;;;18.65;;
3052;SDS011;1536;51.098;6.414;2022-12-10T01:22:34;30.77;;;20.77;;
3052;SDS011;1536;51.098;6.414;2022-12-10T01:25:01;31.23;;;20.20;;
3052;SDS011;1536;51.098;6.414;2022-12-10T01:27:28;24.98;;;18.40;;
3052;SDS011;1536;51.098;6.414;2022-12-10T01:29:55;32.30;;;20.95;;
3052;SDS011;1536;51.098;6.414;2022-12-10T01:32:22;29.48;;;21.58;;
3052;SDS011;1536;51.098;6.414;2022-12-10T01:34:48;31.25;;;21.45;;
3052;SDS011;1536;51.098;6.414;2022-12-10T01:37:15;32.42;;;20.70;;
3052;SDS011;1536;51.098;6.414;2022-12-10T01:39:43;34.30;;;22.48;;
3052;SDS011;1536;51.098;6.414;2022-12-10T01:42:11;33.35;;;21.70;;
3052;SDS011;1536;51.098;6.414;2022-12-10T01:45:03;27.67;;;19.35;;
3052;SDS011;1536;51.098;6.414;2022-12-10T01:47:36;31.17;;;20.55;;
3052;SDS011;1536;51.098;6.414;2022-12-10T01:50:03;30.58;;;18.88;;
3052;SDS011;1536;51.098;6.414;2022-12-10T01:52:31;31.02;;;21.88;;
3052;SDS011;1536;51.098;6.414;2022-12-10T01:54:59;31.40;;;20.58;;
3052;SDS011;1536;51.098;6.414;2022-12-10T01:57:26;33.08;;;22.05;;
3052;SDS011;1536;51.098;6.414;2022-12-10T01:59:54;32.80;;;22.55;;
3052;SDS011;1536;51.098;6.414;2022-12-10T02:02:28;35.15;;;21.33;;
3052;SDS011;1536;51.098;6.414;2022-12-10T02:05:04;31.55;;;20.35;;
3052;SDS011;1536;51.098;6.414;2022-12-10T02:07:39;33.10;;;21.23;;
3052;SDS011;1536;51.098;6.414;2022-12-10T02:10:19;30.08;;;21.17;;
3052;SDS011;1536;51.098;6.414;2022-12-10T02:12:53;27.20;;;18.73;;
3052;SDS011;1536;51.098;6.414;2022-12-10T02:15:24;27.70;;;20.52;;
3052;SDS011;1536;51.098;6.414;2022-12-10T02:17:54;29.10;;;20.58;;
3052;SDS011;1536;51.098;6.414;2022-12-10T02:20:24;29.75;;;19.98;;
3052;SDS011;1536;51.098;6.414;2022-12-10T02:22:56;31.13;;;19.60;;
3052;SDS011;1536;51.098;6.414;2022-12-10T02:25:29;30.85;;;19.95;;
3052;SDS011;1536;51.098;6.414;2022-12-10T02:28:01;32.50;;;21.27;;
3052;SDS011;1536;51.098;6.414;2022-12-10T02:30:35;32.13;;;21.27;;
3052;SDS011;1536;51.098;6.414;2022-12-10T02:33:02;28.48;;;21.35;;
3052;SDS011;1536;51.098;6.414;2022-12-10T02:35:31;34.25;;;20.63;;
3052;SDS011;1536;51.098;6.414;2022-12-10T02:38:05;33.75;;;20.70;;
3052;SDS011;1536;51.098;6.414;2022-12-10T02:40:35;32.90;;;22.38;;
3052;SDS011;1536;51.098;6.414;2022-12-10T02:43:04;34.38;;;21.52;;
3052;SDS011;1536;51.098;6.414;2022-12-10T02:45:34;33.28;;;21.83;;
3052;SDS011;1536;51.098;6.414;2022-12-10T02:48:02;38.65;;;22.85;;
3052;SDS011;1536;51.098;6.414;2022-12-10T02:50:30;41.45;;;25.55;;
3052;SDS011;1536;51.098;6.414;2022-12-10T02:52:57;43.92;;;25.88;;
3052;SDS011;1536;51.098;6.414;2022-12-10T02:55:24;37.90;;;23.67;;
3052;SDS011;1536;51.098;6.414;2022-12-10T02:57:55;35.85;;;24.90;;
3052;SDS011;1536;51.098;6.414;2022-12-10T03:00:31;40.60;;;25.10;;
3052;SDS011;1536;51.098;6.414;2022-12-10T03:03:07;43.90;;;26.48;;
3052;SDS011;1536;51.098;6.414;2022-12-10T03:05:45;41.53;;;26.45;;
3052;SDS011;1536;51.098;6.414;2022-12-10T03:08:16;40.25;;;25.90;;
3052;SDS011;1536;51.098;6.414;2022-12-10T03:10:50;45.67;;;28.45;;
3052;SDS011;1536;51.098;6.414;2022-12-10T03:13:22;50.33;;;26.95;;
3052;SDS011;1536;51.098;6.414;2022-12-10T03:15:55;40.70;;;26.77;;
3052;SDS011;1536;51.098;6.414;2022-12-10T03:18:23;43.85;;;26.38;;
3052;SDS011;1536;51.098;6.414;2022-12-10T03:20:52;49.28;;;28.70;;
3052;SDS011;1536;51.098;6.414;2022-12-10T03:23:22;46.25;;;26.40;;
3052;SDS011;1536;51.098;6.414;2022-12-10T03:25:50;43.95;;;28.95;;
3052;SDS011;1536;51.098;6.414;2022-12-10T03:28:17;45.78;;;26.60;;
3052;SDS011;1536;51.098;6.414;2022-12-10T03:30:45;47.85;;;28.77;;
3052;SDS011;1536;51.098;6.414;2022-12-10T03:33:15;41.63;;;26.88;;
3052;SDS011;1536;51.098;6.414;2022-12-10T03:35:42;46.40;;;28.85;;
3052;SDS011;1536;51.098;6.414;2022-12-10T03:38:10;44.65;;;29.65;;
3052;SDS011;1536;51.098;6.414;2022-12-10T03:40:38;45.60;;;28.52;;
3052;SDS011;1536;51.098;6.414;2022-12-10T03:43:05;47.85;;;30.98;;
3052;SDS011;1536;51.098;6.414;2022-12-10T03:45:31;42.95;;;28.00;;
3052;SDS011;1536;51.098;6.414;2022-12-10T03:47:58;46.17;;;27.65;;
3052;SDS011;1536;51.098;6.414;2022-12-10T03:50:26;46.97;;;28.80;;
3052;SDS011;1536;51.098;6.414;2022-12-10T03:52:53;49.25;;;30.20;;
3052;SDS011;1536;51.098;6.414;2022-12-10T03:55:19;41.55;;;26.90;;
3052;SDS011;1536;51.098;6.414;2022-12-10T03:57:46;44.25;;;29.25;;
3052;SDS011;1536;51.098;6.414;2022-12-10T04:00:13;48.63;;;30.20;;
3052;SDS011;1536;51.098;6.414;2022-12-10T04:02:40;46.08;;;29.60;;
3052;SDS011;1536;51.098;6.414;2022-12-10T04:05:07;47.90;;;27.92;;
3052;SDS011;1536;51.098;6.414;2022-12-10T04:07:35;54.63;;;30.98;;
3052;SDS011;1536;51.098;6.414;2022-12-10T04:10:03;58.72;;;29.30;;
3052;SDS011;1536;51.098;6.414;2022-12-10T04:12:30;51.45;;;29.30;;
3052;SDS011;1536;51.098;6.414;2022-12-10T04:14:56;56.85;;;31.48;;
3052;SDS011;1536;51.098;6.414;2022-12-10T04:17:41;58.53;;;31.75;;
3052;SDS011;1536;51.098;6.414;2022-12-10T04:20:08;56.42;;;33.33;;
3052;SDS011;1536;51.098;6.414;2022-12-10T04:22:56;54.60;;;31.45;;
3052;SDS011;1536;51.098;6.414;2022-12-10T04:25:41;56.78;;;31.55;;
3052;SDS011;1536;51.098;6.414;2022-12-10T04:28:25;53.20;;;30.10;;
3052;SDS011;1536;51.098;6.414;2022-12-10T04:30:52;52.92;;;31.08;;
3052;SDS011;1536;51.098;6.414;2022-12-10T04:33:19;65.70;;;33.83;;
3052;SDS011;1536;51.098;6.414;2022-12-10T04:35:46;58.65;;;32.10;;
3052;SDS011;1536;51.098;6.414;2022-12-10T04:38:14;61.75;;;35.92;;
3052;SDS011;1536;51.098;6.414;2022-12-10T04:40:40;54.53;;;30.67;;
3052;SDS011;1536;51.098;6.414;2022-12-10T04:43:07;61.75;;;33.65;;
3052;SDS011;1536;51.098;6.414;2022-12-10T04:45:34;64.65;;;33.25;;
3052;SDS011;1536;51.098;6.414;2022-12-10T04:48:01;59.53;;;34.88;;
3052;SDS011;1536;51.098;6.414;2022-12-10T04:50:28;65.82;;;35.00;;
3052;SDS011;1536;51.098;6.414;2022-12-10T04:52:54;66.82;;;35.20;;
3052;SDS011;1536;51.098;6.414;2022-12-10T04:55:22;64.30;;;33.40;;
3052;SDS011;1536;51.098;6.414;2022-12-10T04:57:49;65.28;;;34.65;;
3052;SDS011;1536;51.098;6.414;2022-12-10T05:00:16;65.03;;;36.70;;
3052;SDS011;1536;51.098;6.414;2022-12-10T05:02:43;65.07;;;35.95;;
3052;SDS011;1536;51.098;6.414;2022-12-10T05:05:10;61.45;;;31.30;;
3052;SDS011;1536;51.098;6.414;2022-12-10T05:07:37;65.70;;;33.42;;
3052;SDS011;1536;51.098;6.414;2022-12-10T05:10:04;58.42;;;33.40;;
3052;SDS011;1536;51.098;6.414;2022-12-10T05:12:33;52.70;;;33.28;;
3052;SDS011;1536;51.098;6.414;2022-12-10T05:14:59;55.20;;;30.88;;
3052;SDS011;1536;51.098;6.414;2022-12-10T05:17:26;59.42;;;33.25;;
3052;SDS011;1536;51.098;6.414;2022-12-10T05:19:53;59.53;;;34.83;;
3052;SDS011;1536;51.098;6.414;2022-12-10T05:22:19;55.85;;;32.40;;
3052;SDS011;1536;51.098;6.414;2022-12-10T05:25:04;55.92;;;29.60;;
3052;SDS011;1536;51.098;6.414;2022-12-10T05:27:33;64.25;;;33.75;;
3052;SDS011;1536;51.098;6.414;2022-12-10T05:30:00;61.15;;;34.05;;
3052;SDS011;1536;51.098;6.414;2022-12-10T05:32:26;64.25;;;34.97;;
3052;SDS011;1536;51.098;6.414;2022-12-10T05:34:53;64.10;;;32.65;;
3052;SDS011;1536;51.098;6.414;2022-12-10T05:37:20;59.03;;;34.05;;
3052;SDS011;1536;51.098;6.414;2022-12-10T05:39:47;73.80;;;34.85;;
3052;SDS011;1536;51.098;6.414;2022-12-10T05:42:14;67.07;;;34.95;;
3052;SDS011;1536;51.098;6.414;2022-12-10T05:44:42;58.55;;;32.47;;
3052;SDS011;1536;51.098;6.414;2022-12-10T05:47:08;68.43;;;34.03;;
3052;SDS011;1536;51.098;6.414;2022-12-10T05:49:35;62.85;;;34.38;;
3052;SDS011;1536;51.098;6.414;2022-12-10T05:52:02;72.85;;;31.90;;
3052;SDS011;1536;51.098;6.414;2022-12-10T05:54:29;58.78;;;33.50;;
3052;SDS011;1536;51.098;6.414;2022-12-10T05:56:55;72.47;;;33.22;;
3052;SDS011;1536;51.098;6.414;2022-12-10T05:59:22;63.88;;;33.72;;
3052;SDS011;1536;51.098;6.414;2022-12-10T06:01:50;64.80;;;33.50;;
3052;SDS011;1536;51.098;6.414;2022-12-10T06:04:17;63.78;;;34.00;;
3052;SDS011;1536;51.098;6.414;2022-12-10T06:06:43;65.07;;;35.05;;
3052;SDS011;1536;51.098;6.414;2022-12-10T06:09:12;67.53;;;36.25;;
3052;SDS011;1536;51.098;6.414;2022-12-10T06:11:39;61.97;;;32.58;;
3052;SDS011;1536;51.098;6.414;2022-12-10T06:14:06;68.57;;;32.85;;
3052;SDS011;1536;51.098;6.414;2022-12-10T06:16:33;70.75;;;34.22;;
3052;SDS011;1536;51.098;6.414;2022-12-10T06:19:01;59.03;;;31.15;;
3052;SDS011;1536;51.098;6.414;2022-12-10T06:21:27;62.70;;;31.95;;
3052;SDS011;1536;51.098;6.414;2022-12-10T06:23:54;66.10;;;33.08;;
3052;SDS011;1536;51.098;6.414;2022-12-10T06:26:21;64.90;;;34.28;;
3052;SDS011;1536;51.098;6.414;2022-12-10T06:28:50;62.83;;;34.22;;
3052;SDS011;1536;51.098;6.414;2022-12-10T06:31:17;63.88;;;35.80;;
3052;SDS011;1536;51.098;6.414;2022-12-10T06:33:45;67.50;;;34.92;;
3052;SDS011;1536;51.098;6.414;2022-12-10T06:36:14;68.30;;;36.67;;
3052;SDS011;1536;51.098;6.414;2022-12-10T06:38:41;70.53;;;35.13;;
3052;SDS011;1536;51.098;6.414;2022-12-10T06:41:09;67.38;;;36.10;;
3052;SDS011;1536;51.098;6.414;2022-12-10T06:43:37;58.65;;;33.70;;
3052;SDS011;1536;51.098;6.414;2022-12-10T06:46:05;62.83;;;34.05;;
3052;SDS011;1536;51.098;6.414;2022-12-10T06:48:32;55.20;;;32.72;;
3052;SDS011;1536;51.098;6.414;2022-12-10T06:50:59;68.32;;;35.22;;
3052;SDS011;1536;51.098;6.414;2022-12-10T06:53:27;58.88;;;32.22;;
3052;SDS011;1536;51.098;6.414;2022-12-10T06:55:57;66.75;;;34.33;;
3052;SDS011;1536;51.098;6.414;2022-12-10T06:58:25;58.55;;;32.45;;
3052;SDS011;1536;51.098;6.414;2022-12-10T07:00:53;71.00;;;37.08;;
3052;SDS011;1536;51.098;6.414;2022-12-10T07:03:20;68.85;;;35.65;;
3052;SDS011;1536;51.098;6.414;2022-12-10T07:05:46;60.45;;;32.40;;
3052;SDS011;1536;51.098;6.414;2022-12-10T07:08:14;62.33;;;31.20;;
3052;SDS011;1536;51.098;6.414;2022-12-10T07:10:44;54.60;;;32.15;;
3052;SDS011;1536;51.098;6.414;2022-12-10T07:13:10;50.78;;;27.73;;
3052;SDS011;1536;51.098;6.414;2022-12-10T07:15:37;44.05;;;27.60;;
3052;SDS011;1536;51.098;6.414;2022-12-10T07:18:04;53.13;;;31.67;;
3052;SDS011;1536;51.098;6.414;2022-12-10T07:20:30;53.78;;;29.63;;
3052;SDS011;1536;51.098;6.414;2022-12-10T07:22:57;57.03;;;30.05;;
3052;SDS011;1536;51.098;6.414;2022-12-10T07:25:24;50.20;;;30.80;;
3052;SDS011;1536;51.098;6.414;2022-12-10T07:27:52;52.70;;;30.88;;
3052;SDS011;1536;51.098;6.414;2022-12-10T07:30:19;53.75;;;30.98;;
3052;SDS011;1536;51.098;6.414;2022-12-10T07:32:45;47.10;;;29.58;;
3052;SDS011;1536;51.098;6.414;2022-12-10T07:35:12;47.88;;;27.90;;
3052;SDS011;1536;51.098;6.414;2022-12-10T07:37:39;55.92;;;30.63;;
3052;SDS011;1536;51.098;6.414;2022-12-10T07:40:06;50.22;;;30.25;;
3052;SDS011;1536;51.098;6.414;2022-12-10T07:42:33;53.70;;;30.88;;
3052;SDS011;1536;51.098;6.414;2022-12-10T07:45:01;48.30;;;27.17;;
3052;SDS011;1536;51.098;6.414;2022-12-10T07:47:29;52.78;;;29.80;;
3052;SDS011;1536;51.098;6.414;2022-12-10T07:49:55;53.72;;;30.30;;
3052;SDS011;1536;51.098;6.414;2022-12-10T07:52:22;52.00;;;30.10;;
3052;SDS011;1536;51.098;6.414;2022-12-10T07:54:49;48.28;;;30.20;;
3052;SDS011;1536;51.098;6.414;2022-12-10T07:57:15;50.25;;;30.67;;
3052;SDS011;1536;51.098;6.414;2022-12-10T07:59:42;54.83;;;30.90;;
3052;SDS011;1536;51.098;6.414;2022-12-10T08:02:10;56.20;;;30.38;;
3052;SDS011;1536;51.098;6.414;2022-12-10T08:04:37;55.60;;;30.45;;
3052;SDS011;1536;51.098;6.414;2022-12-10T08:07:03;55.42;;;31.70;;
3052;SDS011;1536;51.098;6.414;2022-12-10T08:09:30;51.63;;;29.25;;
3052;SDS011;1536;51.098;6.414;2022-12-10T08:11:57;56.55;;;30.55;;
3052;SDS011;1536;51.098;6.414;2022-12-10T08:14:24;53.40;;;28.42;;
3052;SDS011;1536;51.098;6.414;2022-12-10T08:16:50;63.20;;;29.92;;
3052;SDS011;1536;51.098;6.414;2022-12-10T08:19:19;51.80;;;32.05;;
3052;SDS011;1536;51.098;6.414;2022-12-10T08:21:45;50.53;;;27.60;;
3052;SDS011;1536;51.098;6.414;2022-12-10T08:24:12;51.80;;;29.85;;
3052;SDS011;1536;51.098;6.414;2022-12-10T08:26:39;49.38;;;28.75;;
3052;SDS011;1536;51.098;6.414;2022-12-10T08:29:05;49.55;;;26.58;;
3052;SDS011;1536;51.098;6.414;2022-12-10T08:31:32;49.70;;;29.83;;
3052;SDS011;1536;51.098;6.414;2022-12-10T08:33:59;51.80;;;30.23;;
3052;SDS011;1536;51.098;6.414;2022-12-10T08:36:27;54.67;;;30.30;;
3052;SDS011;1536;51.098;6.414;2022-12-10T08:38:55;53.60;;;31.52;;
3052;SDS011;1536;51.098;6.414;2022-12-10T08:41:22;50.50;;;30.63;;
3052;SDS011;1536;51.098;6.414;2022-12-10T08:43:50;44.67;;;28.55;;
3052;SDS011;1536;51.098;6.414;2022-12-10T08:46:18;44.92;;;28.08;;
3052;SDS011;1536;51.098;6.414;2022-12-10T08:48:44;52.92;;;31.00;;
3052;SDS011;1536;51.098;6.414;2022-12-10T08:51:13;52.88;;;29.35;;
3052;SDS011;1536;51.098;6.414;2022-12-10T08:53:42;65.00;;;31.65;;
3052;SDS011;1536;51.098;6.414;2022-12-10T08:56:10;53.72;;;30.83;;
3052;SDS011;1536;51.098;6.414;2022-12-10T08:58:37;49.95;;;27.92;;
3052;SDS011;1536;51.098;6.414;2022-12-10T09:01:07;46.22;;;28.50;;
3052;SDS011;1536;51.098;6.414;2022-12-10T09:03:35;47.67;;;30.65;;
3052;SDS011;1536;51.098;6.414;2022-12-10T09:06:03;45.67;;;27.83;;
3052;SDS011;1536;51.098;6.414;2022-12-10T09:08:31;49.40;;;29.05;;
3052;SDS011;1536;51.098;6.414;2022-12-10T09:11:00;46.00;;;28.10;;
3052;SDS011;1536;51.098;6.414;2022-12-10T09:13:31;40.42;;;27.55;;
3052;SDS011;1536;51.098;6.414;2022-12-10T09:15:57;48.33;;;27.75;;
3052;SDS011;1536;51.098;6.414;2022-12-10T09:18:24;41.28;;;25.33;;
3052;SDS011;1536;51.098;6.414;2022-12-10T09:20:51;47.55;;;27.13;;
3052;SDS011;1536;51.098;6.414;2022-12-10T09:23:17;37.47;;;24.58;;
3052;SDS011;1536;51.098;6.414;2022-12-10T09:25:44;43.08;;;25.08;;
3052;SDS011;1536;51.098;6.414;2022-12-10T09:28:12;40.90;;;25.83;;
3052;SDS011;1536;51.098;6.414;2022-12-10T09:30:39;39.80;;;24.20;;
3052;SDS011;1536;51.098;6.414;2022-12-10T09:33:06;43.60;;;26.83;;
3052;SDS011;1536;51.098;6.414;2022-12-10T09:35:33;42.13;;;24.52;;
3052;SDS011;1536;51.098;6.414;2022-12-10T09:37:59;39.30;;;24.20;;
3052;SDS011;1536;51.098;6.414;2022-12-10T09:40:32;37.33;;;22.92;;
3052;SDS011;1536;51.098;6.414;2022-12-10T09:43:04;39.78;;;24.85;;
3052;SDS011;1536;51.098;6.414;2022-12-10T09:45:44;41.30;;;25.17;;
3052;SDS011;1536;51.098;6.414;2022-12-10T09:48:20;38.38;;;23.83;;
3052;SDS011;1536;51.098;6.414;2022-12-10T09:50:55;46.85;;;27.13;;
3052;SDS011;1536;51.098;6.414;2022-12-10T09:53:29;40.83;;;26.23;;
3052;SDS011;1536;51.098;6.414;2022-12-10T09:55:57;44.75;;;27.40;;
3052;SDS011;1536;51.098;6.414;2022-12-10T09:58:26;45.25;;;28.88;;
3052;SDS011;1536;51.098;6.414;2022-12-10T10:00:54;44.42;;;30.30;;
3052;SDS011;1536;51.098;6.414;2022-12-10T10:03:24;42.78;;;28.55;;
3052;SDS011;1536;51.098;6.414;2022-12-10T10:05:52;42.08;;;27.85;;
3052;SDS011;1536;51.098;6.414;2022-12-10T10:08:23;41.60;;;27.92;;
3052;SDS011;1536;51.098;6.414;2022-12-10T10:10:55;39.63;;;24.15;;
3052;SDS011;1536;51.098;6.414;2022-12-10T10:13:26;39.50;;;25.15;;
3052;SDS011;1536;51.098;6.414;2022-12-10T10:15:57;40.20;;;25.35;;
3052;SDS011;1536;51.098;6.414;2022-12-10T10:18:39;40.67;;;24.83;;
3052;SDS011;1536;51.098;6.414;2022-12-10T10:21:11;34.53;;;24.75;;
3052;SDS011;1536;51.098;6.414;2022-12-10T10:23:45;37.53;;;24.55;;
3052;SDS011;1536;51.098;6.414;2022-12-10T10:26:12;35.95;;;25.50;;
3052;SDS011;1536;51.098;6.414;2022-12-10T10:28:41;38.15;;;24.63;;
3052;SDS011;1536;51.098;6.414;2022-12-10T10:31:16;35.97;;;23.98;;
3052;SDS011;1536;51.098;6.414;2022-12-10T10:33:47;33.38;;;22.90;;
3052;SDS011;1536;51.098;6.414;2022-12-10T10:36:22;33.53;;;22.15;;
3052;SDS011;1536;51.098;6.414;2022-12-10T10:38:50;35.55;;;22.73;;
3052;SDS011;1536;51.098;6.414;2022-12-10T10:41:17;33.58;;;22.88;;
3052;SDS011;1536;51.098;6.414;2022-12-10T10:43:46;33.92;;;21.20;;
3052;SDS011;1536;51.098;6.414;2022-12-10T10:46:15;36.15;;;21.85;;
3052;SDS011;1536;51.098;6.414;2022-12-10T10:48:43;35.20;;;23.55;;
3052;SDS011;1536;51.098;6.414;2022-12-10T10:51:15;36.10;;;24.77;;
3052;SDS011;1536;51.098;6.414;2022-12-10T10:53:46;34.10;;;22.88;;
3052;SDS011;1536;51.098;6.414;2022-12-10T10:56:16;38.17;;;23.13;;
3052;SDS011;1536;51.098;6.414;2022-12-10T10:58:49;36.20;;;23.30;;
3052;SDS011;1536;51.098;6.414;2022-12-10T11:01:23;42.80;;;23.52;;
3052;SDS011;1536;51.098;6.414;2022-12-10T11:03:53;33.85;;;23.30;;
3052;SDS011;1536;51.098;6.414;2022-12-10T11:06:21;42.60;;;24.25;;
3052;SDS011;1536;51.098;6.414;2022-12-10T11:08:49;37.25;;;23.08;;
3052;SDS011;1536;51.098;6.414;2022-12-10T11:11:22;35.75;;;23.15;;
3052;SDS011;1536;51.098;6.414;2022-12-10T11:14:06;39.35;;;24.73;;
3052;SDS011;1536;51.098;6.414;2022-12-10T11:16:39;37.08;;;24.63;;
3052;SDS011;1536;51.098;6.414;2022-12-10T11:19:16;40.55;;;25.23;;
3052;SDS011;1536;51.098;6.414;2022-12-10T11:21:46;47.05;;;24.98;;
3052;SDS011;1536;51.098;6.414;2022-12-10T11:24:15;43.08;;;26.75;;
3052;SDS011;1536;51.098;6.414;2022-12-10T11:26:52;40.53;;;26.38;;
3052;SDS011;1536;51.098;6.414;2022-12-10T11:32:20;43.92;;;25.52;;
3052;SDS011;1536;51.098;6.414;2022-12-10T11:35:01;41.72;;;25.05;;
3052;SDS011;1536;51.098;6.414;2022-12-10T11:37:37;45.15;;;25.35;;
3052;SDS011;1536;51.098;6.414;2022-12-10T11:40:21;44.60;;;25.40;;
3052;SDS011;1536;51.098;6.414;2022-12-10T11:42:59;38.55;;;25.73;;
3052;SDS011;1536;51.098;6.414;2022-12-10T11:45:44;43.25;;;26.08;;
3052;SDS011;1536;51.098;6.414;2022-12-10T11:48:19;42.65;;;27.77;;
3052;SDS011;1536;51.098;6.414;2022-12-10T11:51:00;40.38;;;25.50;;
3052;SDS011;1536;51.098;6.414;2022-12-10T11:53:34;51.50;;;27.67;;
3052;SDS011;1536;51.098;6.414;2022-12-10T11:56:16;48.53;;;27.27;;
3052;SDS011;1536;51.098;6.414;2022-12-10T11:58:53;45.72;;;27.38;;
3052;SDS011;1536;51.098;6.414;2022-12-10T12:01:36;49.42;;;26.77;;
3052;SDS011;1536;51.098;6.414;2022-12-10T12:04:19;50.08;;;27.67;;
3052;SDS011;1536;51.098;6.414;2022-12-10T12:07:06;46.30;;;26.13;;
3052;SDS011;1536;51.098;6.414;2022-12-10T12:09:47;53.40;;;25.17;;
3052;SDS011;1536;51.098;6.414;2022-12-10T12:12:24;46.42;;;26.05;;
3052;SDS011;1536;51.098;6.414;2022-12-10T12:15:02;40.97;;;25.13;;
3052;SDS011;1536;51.098;6.414;2022-12-10T12:17:40;49.78;;;27.35;;
3052;SDS011;1536;51.098;6.414;2022-12-10T12:20:13;55.42;;;28.75;;
3052;SDS011;1536;51.098;6.414;2022-12-10T12:22:44;49.17;;;28.25;;
3052;SDS011;1536;51.098;6.414;2022-12-10T12:25:16;57.83;;;30.67;;
3052;SDS011;1536;51.098;6.414;2022-12-10T12:27:49;58.00;;;28.70;;
3052;SDS011;1536;51.098;6.414;2022-12-10T12:30:21;52.67;;;29.35;;
3052;SDS011;1536;51.098;6.414;2022-12-10T12:32:54;54.97;;;27.48;;
3052;SDS011;1536;51.098;6.414;2022-12-10T12:35:27;55.90;;;29.92;;
3052;SDS011;1536;51.098;6.414;2022-12-10T12:38:03;48.53;;;26.73;;
3052;SDS011;1536;51.098;6.414;2022-12-10T12:40:41;47.85;;;24.88;;
3052;SDS011;1536;51.098;6.414;2022-12-10T12:43:14;47.40;;;25.27;;
3052;SDS011;1536;51.098;6.414;2022-12-10T12:45:45;50.90;;;27.38;;
3052;SDS011;1536;51.098;6.414;2022-12-10T12:48:18;45.00;;;25.75;;
3052;SDS011;1536;51.098;6.414;2022-12-10T12:50:49;46.45;;;26.67;;
3052;SDS011;1536;51.098;6.414;2022-12-10T12:53:20;48.38;;;27.10;;
3052;SDS011;1536;51.098;6.414;2022-12-10T12:55:53;47.63;;;26.42;;
3052;SDS011;1536;51.098;6.414;2022-12-10T12:58:26;45.35;;;27.92;;
3052;SDS011;1536;51.098;6.414;2022-12-10T13:01:11;42.70;;;25.02;;
3052;SDS011;1536;51.098;6.414;2022-12-10T13:03:45;46.25;;;26.60;;
3052;SDS011;1536;51.098;6.414;2022-12-10T13:06:14;44.45;;;25.65;;
3052;SDS011;1536;51.098;6.414;2022-12-10T13:08:44;41.58;;;24.30;;
3052;SDS011;1536;51.098;6.414;2022-12-10T13:11:19;38.25;;;23.48;;
3052;SDS011;1536;51.098;6.414;2022-12-10T13:14:03;45.90;;;25.52;;
3052;SDS011;1536;51.098;6.414;2022-12-10T13:19:43;42.47;;;24.65;;
3052;SDS011;1536;51.098;6.414;2022-12-10T13:22:10;44.65;;;25.95;;
3052;SDS011;1536;51.098;6.414;2022-12-10T13:25:00;42.47;;;25.10;;
3052;SDS011;1536;51.098;6.414;2022-12-10T13:27:38;41.45;;;24.63;;
3052;SDS011;1536;51.098;6.414;2022-12-10T13:30:27;46.13;;;26.35;;
3052;SDS011;1536;51.098;6.414;2022-12-10T13:33:12;44.53;;;24.20;;
3052;SDS011;1536;51.098;6.414;2022-12-10T13:35:48;40.40;;;25.33;;
3052;SDS011;1536;51.098;6.414;2022-12-10T13:38:18;42.67;;;26.67;;
3052;SDS011;1536;51.098;6.414;2022-12-10T13:40:56;40.65;;;24.85;;
3052;SDS011;1536;51.098;6.414;2022-12-10T13:43:43;46.13;;;25.23;;
3052;SDS011;1536;51.098;6.414;2022-12-10T13:46:50;40.47;;;23.77;;
3052;SDS011;1536;51.098;6.414;2022-12-10T13:49:19;43.83;;;23.65;;
3052;SDS011;1536;51.098;6.414;2022-12-10T13:51:59;42.25;;;22.95;;
3052;SDS011;1536;51.098;6.414;2022-12-10T14:00:19;39.28;;;24.80;;
3052;SDS011;1536;51.098;6.414;2022-12-10T14:02:56;39.22;;;25.08;;
3052;SDS011;1536;51.098;6.414;2022-12-10T14:05:55;41.92;;;24.50;;
3052;SDS011;1536;51.098;6.414;2022-12-10T14:08:32;43.03;;;25.27;;
3052;SDS011;1536;51.098;6.414;2022-12-10T14:11:02;44.72;;;26.42;;
3052;SDS011;1536;51.098;6.414;2022-12-10T14:13:33;51.80;;;27.50;;
3052;SDS011;1536;51.098;6.414;2022-12-10T14:16:04;45.00;;;27.25;;
3052;SDS011;1536;51.098;6.414;2022-12-10T14:18:36;48.00;;;30.00;;
3052;SDS011;1536;51.098;6.414;2022-12-10T14:21:04;49.92;;;27.45;;
3052;SDS011;1536;51.098;6.414;2022-12-10T14:23:34;45.78;;;26.95;;
3052;SDS011;1536;51.098;6.414;2022-12-10T14:26:06;43.30;;;27.13;;
3052;SDS011;1536;51.098;6.414;2022-12-10T14:28:37;49.08;;;27.50;;
3052;SDS011;1536;51.098;6.414;2022-12-10T14:31:06;41.75;;;26.58;;
3052;SDS011;1536;51.098;6.414;2022-12-10T14:33:39;53.45;;;27.67;;
3052;SDS011;1536;51.098;6.414;2022-12-10T14:36:06;46.75;;;28.70;;
3052;SDS011;1536;51.098;6.414;2022-12-10T14:38:41;54.85;;;29.88;;
3052;SDS011;1536;51.098;6.414;2022-12-10T14:41:12;49.53;;;29.92;;
3052;SDS011;1536;51.098;6.414;2022-12-10T14:43:43;44.42;;;25.10;;
3052;SDS011;1536;51.098;6.414;2022-12-10T14:46:12;54.75;;;29.30;;
3052;SDS011;1536;51.098;6.414;2022-12-10T14:48:42;42.30;;;24.38;;
3052;SDS011;1536;51.098;6.414;2022-12-10T14:51:12;42.95;;;26.92;;
3052;SDS011;1536;51.098;6.414;2022-12-10T14:53:42;41.45;;;25.75;;
3052;SDS011;1536;51.098;6.414;2022-12-10T14:56:10;50.15;;;27.13;;
3052;SDS011;1536;51.098;6.414;2022-12-10T14:58:43;50.30;;;26.30;;
3052;SDS011;1536;51.098;6.414;2022-12-10T15:01:14;46.75;;;27.02;;
3052;SDS011;1536;51.098;6.414;2022-12-10T15:03:45;42.83;;;25.95;;
3052;SDS011;1536;51.098;6.414;2022-12-10T15:06:14;46.30;;;29.52;;
3052;SDS011;1536;51.098;6.414;2022-12-10T15:08:45;50.25;;;25.80;;
3052;SDS011;1536;51.098;6.414;2022-12-10T15:11:14;39.58;;;23.45;;
3052;SDS011;1536;51.098;6.414;2022-12-10T15:13:43;41.17;;;24.75;;
3052;SDS011;1536;51.098;6.414;2022-12-10T15:16:16;45.03;;;25.73;;
3052;SDS011;1536;51.098;6.414;2022-12-10T15:18:44;43.65;;;25.50;;